Time;durP1;ratioP1;P1;durP2;ratioP2;P2;SDS_P1;SDS_P2;PMS_P1;PMS_P2;Temp;Humidity;BMP_temperature;BMP_pressure;BME280_temperature;BME280_humidity;BME280_pressure;Samples;Min_cycle;Max_cycle;Signal;HPM_P1;HPM_P2
2021/08/07 00:03:38;;;;;;;;;;;15.50;99.90;;;14.58;99.42;95044.75;10288881;28;2257;-82
2021/08/07 00:08:59;;;;;;;;;;;15.60;99.90;;;14.62;98.73;95047.59;10300977;28;2516;-79
2021/08/07 00:14:02;;;;;;;;;;;15.60;99.90;;;14.68;98.99;95038.22;10314495;28;2357;-80
2021/08/07 00:19:05;;;;;;;;;;;15.70;99.90;;;14.68;98.19;95048.22;10300835;28;2227;-80
2021/08/07 00:24:07;;;;;;;;;;;15.70;99.90;;;14.64;98.37;95036.47;10303001;28;2227;-81
2021/08/07 00:29:10;;;;;;;;;;;15.70;99.90;;;14.66;96.92;95029.63;10331808;28;2273;-78
2021/08/07 00:34:13;;;;;;;;;;;15.70;99.90;;;14.68;97.05;95032.00;10329936;28;2362;-80
2021/08/07 00:39:15;;;;;;;;;;;15.70;99.90;;;14.61;97.93;95046.00;10319949;28;2591;-80
2021/08/07 00:44:18;;;;;;;;;;;15.60;99.90;;;14.48;99.60;95042.31;10317689;28;1792;-79
2021/08/07 00:49:21;;;;;;;;;;;15.60;99.90;;;14.51;100.00;95039.00;10312623;28;2051;-79
2021/08/07 00:54:23;;;;;;;;;;;15.60;99.90;;;14.57;99.89;95032.34;10313815;28;1215;-79
2021/08/07 00:59:26;;;;;;;;;;;15.60;99.90;;;14.69;98.67;95041.72;10305817;28;2814;-79
2021/08/07 01:04:29;;;;;;;;;;;15.60;99.90;;;14.62;99.61;95030.56;10319016;28;2447;-81
2021/08/07 01:09:31;;;;;;;;;;;15.60;99.90;;;14.63;98.84;95026.75;10319701;28;2437;-79
2021/08/07 01:14:35;;;;;;;;;;;15.70;99.90;;;14.58;98.92;95025.81;10325316;28;2096;-81
2021/08/07 01:19:39;;;;;;;;;;;15.60;99.90;;;14.58;98.86;95009.56;10292146;28;2290;-81
2021/08/07 01:24:41;;;;;;;;;;;15.60;99.90;;;14.71;97.53;95017.84;10289084;28;2341;-82
2021/08/07 01:29:44;;;;;;;;;;;15.60;99.90;;;14.73;97.30;95000.19;10291603;28;2468;-79
2021/08/07 01:34:47;;;;;;;;;;;15.70;99.90;;;14.71;97.76;94993.53;10293896;28;2279;-80
2021/08/07 01:39:49;;;;;;;;;;;15.70;99.90;;;14.83;97.13;94989.06;10284527;28;2159;-80
2021/08/07 01:44:52;;;;;;;;;;;15.70;99.90;;;14.94;97.06;94975.97;10280141;28;2431;-79
2021/08/07 01:49:55;;;;;;;;;;;15.80;99.90;;;14.94;97.14;94970.56;10275721;28;2402;-82
2021/08/07 01:54:57;;;;;;;;;;;15.90;99.90;;;14.90;97.54;94963.44;10282992;28;2384;-82
2021/08/07 02:00:00;;;;;;;;;;;15.90;99.90;;;14.86;97.36;94966.75;10286916;28;2304;-79
2021/08/07 02:05:03;;;;;;;;;;;15.90;99.90;;;14.74;98.09;94984.75;10317623;28;2290;-79
2021/08/07 02:10:05;;;;;;;;;;;15.80;99.90;;;14.51;98.98;94987.63;10310458;28;2035;-80
2021/08/07 02:15:08;;;;;;;;;;;15.70;99.90;;;14.45;100.00;94980.75;10294692;28;2309;-80
2021/08/07 02:20:11;;;;;;;;;;;15.60;99.90;;;14.45;100.00;94977.25;10307228;28;2357;-79
2021/08/07 02:25:14;;;;;;;;;;;15.60;99.90;;;14.31;100.00;94982.78;10306589;28;2486;-78
2021/08/07 02:30:16;;;;;;;;;;;15.40;99.90;;;14.21;100.00;94966.88;10303721;28;2733;-79
2021/08/07 02:35:19;;;;;;;;;;;15.30;99.90;;;14.32;100.00;94954.66;10296316;28;2480;-80
2021/08/07 02:40:22;;;;;;;;;;;15.30;99.90;;;14.39;100.00;94954.19;10295945;28;2702;-80
2021/08/07 02:45:25;;;;;;;;;;;15.30;99.90;;;14.44;100.00;94956.72;10279401;28;2595;-80
2021/08/07 02:50:28;;;;;;;;;;;15.40;99.90;;;14.44;99.74;94952.13;10287602;28;2770;-79
2021/08/07 02:55:30;;;;;;;;;;;15.40;99.90;;;14.38;100.00;94947.97;10279174;28;2786;-80
2021/08/07 03:00:33;;;;;;;;;;;15.40;99.90;;;14.46;100.00;94936.41;10281906;28;2150;-80
2021/08/07 03:05:36;;;;;;;;;;;15.40;99.90;;;14.60;99.05;94947.84;10275317;28;2499;-78
2021/08/07 03:10:39;;;;;;;;;;;15.50;99.90;;;14.69;99.11;94947.03;10280579;28;2574;-77
2021/08/07 03:15:42;;;;;;;;;;;15.60;99.90;;;14.70;99.06;94938.63;10294655;28;2331;-79
2021/08/07 03:20:45;;;;;;;;;;;15.70;99.90;;;14.59;99.49;94940.84;10279331;28;2350;-80
2021/08/07 03:25:47;;;;;;;;;;;15.70;99.90;;;14.47;100.00;94943.38;10287569;28;2296;-80
2021/08/07 03:30:50;;;;;;;;;;;15.60;99.90;;;14.45;100.00;94939.41;10279468;28;2327;-80
2021/08/07 03:35:53;;;;;;;;;;;15.50;99.90;;;14.41;100.00;94933.03;10291488;28;2333;-81
2021/08/07 03:40:59;;;;;;;;;;;15.40;99.90;;;14.43;100.00;94957.81;10284230;28;2356;-80
2021/08/07 03:46:02;;;;;;;;;;;15.40;99.90;;;14.37;100.00;94948.28;10290052;28;2284;-80
2021/08/07 03:51:05;;;;;;;;;;;15.40;99.90;;;14.48;100.00;94934.16;10275713;28;2485;-81
2021/08/07 03:56:08;;;;;;;;;;;15.40;99.90;;;14.48;100.00;94933.38;10267229;28;2464;-81
2021/08/07 04:01:11;;;;;;;;;;;15.40;99.90;;;14.64;99.97;94918.25;10268516;28;2392;-81
2021/08/07 04:06:13;;;;;;;;;;;15.50;99.90;;;14.73;99.19;94912.81;10266008;28;2657;-81
2021/08/07 04:11:16;;;;;;;;;;;15.60;99.90;;;14.83;99.12;94916.00;10276393;28;2547;-81
2021/08/07 04:16:24;;;;;;;;;;;15.70;99.90;;;14.96;97.99;94914.22;10279025;28;2488;-81
2021/08/07 04:21:26;;;;;;;;;;;15.80;99.90;;;15.05;97.20;94906.06;10270771;28;2475;-81
2021/08/07 04:26:29;;;;;;;;;;;15.90;99.90;;;15.21;96.45;94900.94;10291051;28;2436;-81
2021/08/07 04:31:35;;;;;;;;;;;16.00;99.90;;;15.35;94.96;94917.78;10275571;28;2446;-80
2021/08/07 04:36:38;;;;;;;;;;;16.20;99.90;;;15.65;93.72;94929.47;10274507;28;2547;-80
2021/08/07 04:41:40;;;;;;;;;;;16.30;99.90;;;16.32;89.01;94933.22;10274917;28;2504;-80
2021/08/07 04:46:43;;;;;;;;;;;16.60;99.90;;;16.56;87.55;94932.56;10275227;28;2475;-81
2021/08/07 04:51:46;;;;;;;;;;;17.20;99.90;;;16.61;86.68;94944.00;10288955;28;2556;-80
2021/08/07 04:56:49;;;;;;;;;;;17.30;99.90;;;16.81;84.39;94938.94;10286513;28;2448;-80
2021/08/07 05:01:51;;;;;;;;;;;17.60;99.90;;;16.93;84.11;94930.84;10290015;28;2475;-81
2021/08/07 05:06:55;;;;;;;;;;;17.70;99.90;;;17.01;83.24;94929.94;10275579;28;2522;-80
2021/08/07 05:11:57;;;;;;;;;;;17.80;99.90;;;17.05;83.25;94921.91;10309483;28;2507;-81
2021/08/07 05:17:00;;;;;;;;;;;17.80;99.90;;;16.91;83.14;94928.44;10315172;28;2614;-79
2021/08/07 05:22:03;;;;;;;;;;;17.90;99.90;;;17.23;82.14;94905.09;10293407;28;2470;-79
2021/08/07 05:27:05;;;;;;;;;;;17.90;99.90;;;17.53;79.62;94911.16;10280438;28;2950;-80
2021/08/07 05:32:08;;;;;;;;;;;18.20;99.90;;;17.62;78.64;94908.31;10294612;28;2709;-80
2021/08/07 05:37:11;;;;;;;;;;;18.40;99.90;;;17.68;78.76;94917.84;10310999;28;2559;-79
2021/08/07 05:42:14;;;;;;;;;;;18.50;99.90;;;17.80;78.00;94914.34;10300003;28;2349;-81
2021/08/07 05:47:16;;;;;;;;;;;18.60;99.90;;;18.00;77.04;94913.44;10306386;28;2462;-80
2021/08/07 05:52:19;;;;;;;;;;;18.70;99.90;;;17.68;79.08;94904.25;10315039;28;2590;-79
2021/08/07 05:57:22;;;;;;;;;;;18.70;99.90;;;17.37;80.83;94907.53;10286745;28;2545;-81
2021/08/07 06:02:24;;;;;;;;;;;18.40;99.90;;;17.26;81.70;94900.94;10294951;28;2489;-79
2021/08/07 06:07:27;;;;;;;;;;;18.30;99.90;;;18.08;78.73;94896.22;10308199;28;2696;-79
2021/08/07 06:12:30;;;;;;;;;;;18.50;99.90;;;18.74;74.44;94908.66;10296257;28;2673;-79
2021/08/07 06:17:33;;;;;;;;;;;19.10;99.90;;;18.53;74.84;94916.97;10298061;28;2647;-80
2021/08/07 06:22:35;;;;;;;;;;;19.20;99.90;;;18.64;73.55;94911.84;10283188;28;2550;-81
2021/08/07 06:27:38;;;;;;;;;;;19.50;99.90;;;18.30;76.23;94905.81;10296360;28;2589;-78
2021/08/07 06:32:41;;;;;;;;;;;19.30;99.90;;;18.76;75.20;94887.31;10288141;28;2353;-80
2021/08/07 06:37:44;;;;;;;;;;;19.30;99.90;;;19.06;73.78;94878.78;10279693;28;2359;-80
2021/08/07 06:42:47;;;;;;;;;;;19.70;99.90;;;18.54;75.31;94858.69;10282507;28;2305;-81
2021/08/07 06:47:49;;;;;;;;;;;19.60;99.90;;;18.64;76.03;94879.19;10296160;28;2363;-79
2021/08/07 06:52:52;;;;;;;;;;;19.60;99.90;;;19.15;74.33;94893.03;10311946;28;2226;-79
2021/08/07 06:57:55;;;;;;;;;;;19.70;99.90;;;19.30;71.52;94903.16;10294272;28;2301;-81
2021/08/07 07:02:59;;;;;;;;;;;20.00;99.90;;;19.59;70.96;94903.91;10284193;28;2352;-80
2021/08/07 07:08:02;;;;;;;;;;;20.20;99.90;;;20.37;67.60;94883.09;10283015;28;2396;-79
2021/08/07 07:13:06;;;;;;;;;;;20.70;99.90;;;20.50;67.28;94874.44;10282727;28;2461;-79
2021/08/07 07:18:08;;;;;;;;;;;21.20;99.90;;;20.38;67.58;94879.22;10280634;28;2300;-79
2021/08/07 07:23:12;;;;;;;;;;;21.20;99.90;;;20.32;68.19;94878.72;10297135;28;2274;-77
2021/08/07 07:28:15;;;;;;;;;;;21.30;99.90;;;19.89;70.11;94891.38;10286759;28;2401;-78
2021/08/07 07:33:18;;;;;;;;;;;21.40;99.90;;;20.98;66.78;94877.72;10303984;28;2303;-78
2021/08/07 07:38:21;;;;;;;;;;;21.50;99.90;;;21.36;63.94;94878.84;10311446;28;2285;-78
2021/08/07 07:43:25;;;;;;;;;;;22.00;99.90;;;21.93;61.41;94868.81;10291564;28;2358;-77
2021/08/07 07:48:28;;;;;;;;;;;22.50;99.90;;;22.02;62.28;94866.63;10293840;28;2277;-79
2021/08/07 07:53:31;;;;;;;;;;;22.60;99.90;;;22.24;60.82;94866.97;10287391;28;2312;-79
2021/08/07 07:58:34;;;;;;;;;;;23.00;99.90;;;23.25;57.50;94861.53;10299039;28;2416;-80
2021/08/07 08:03:37;;;;;;;;;;;23.60;99.90;;;23.55;53.77;94862.22;10300485;28;2209;-79
2021/08/07 08:08:42;;;;;;;;;;;24.10;99.90;;;24.21;52.73;94863.13;10301512;28;2420;-79
2021/08/07 08:13:45;;;;;;;;;;;24.50;99.90;;;23.90;52.13;94858.22;10298796;28;2332;-81
2021/08/07 08:18:48;;;;;;;;;;;24.60;99.90;;;24.10;51.43;94858.72;10279342;28;2248;-79
2021/08/07 08:23:50;;;;;;;;;;;24.80;99.90;;;24.10;51.54;94859.50;10279285;28;2497;-79
2021/08/07 08:28:53;;;;;;;;;;;24.80;99.90;;;24.52;50.53;94841.75;10279896;28;2268;-79
2021/08/07 08:33:56;;;;;;;;;;;25.00;99.90;;;24.70;49.56;94848.09;10277636;28;2280;-80
2021/08/07 08:38:58;;;;;;;;;;;25.30;99.90;;;24.82;47.71;94844.22;10283156;28;2460;-79
2021/08/07 08:44:01;;;;;;;;;;;25.50;99.90;;;25.51;45.28;94829.44;10288214;28;2448;-77
2021/08/07 08:49:04;;;;;;;;;;;25.70;99.90;;;26.25;43.39;94816.84;10302711;28;2376;-80
2021/08/07 08:54:07;;;;;;;;;;;26.40;99.90;;;26.14;42.06;94814.09;10289358;28;2368;-81
2021/08/07 08:59:10;;;;;;;;;;;26.80;99.90;;;25.84;43.31;94803.53;10293090;28;2302;-79
2021/08/07 09:04:13;;;;;;;;;;;26.30;99.90;;;25.81;42.06;94813.34;10294623;28;2314;-79
2021/08/07 09:09:16;;;;;;;;;;;26.40;99.90;;;25.24;43.96;94815.28;10301834;28;2399;-78
2021/08/07 09:14:18;;;;;;;;;;;26.20;99.90;;;24.95;42.73;94819.94;10304556;28;2106;-80
2021/08/07 09:19:21;;;;;;;;;;;25.70;99.90;;;25.66;42.47;94813.75;10308535;28;2334;-78
2021/08/07 09:24:24;;;;;;;;;;;26.00;99.90;;;26.51;41.08;94807.34;10286203;28;2404;-80
2021/08/07 09:29:26;;;;;;;;;;;26.60;99.90;;;25.82;41.84;94800.38;10290446;28;2289;-80
2021/08/07 09:34:29;;;;;;;;;;;26.80;99.90;;;25.75;42.01;94789.38;10299679;28;2282;-79
2021/08/07 09:39:32;;;;;;;;;;;26.50;99.90;;;25.92;42.24;94788.59;10290238;28;2135;-80
2021/08/07 09:44:35;;;;;;;;;;;26.60;99.90;;;25.30;41.16;94787.00;10290063;28;2303;-80
2021/08/07 09:49:37;;;;;;;;;;;26.40;99.90;;;25.12;42.08;94779.91;10286253;28;2379;-79
2021/08/07 09:54:40;;;;;;;;;;;26.10;99.90;;;24.85;43.01;94787.69;10281533;28;2389;-79
2021/08/07 09:59:43;;;;;;;;;;;25.90;99.90;;;24.35;43.71;94771.81;10299329;28;2412;-79
2021/08/07 10:04:46;;;;;;;;;;;25.70;99.90;;;24.69;43.69;94769.59;10298486;28;2436;-79
2021/08/07 10:09:48;;;;;;;;;;;25.50;99.90;;;24.74;43.52;94760.16;10286492;28;2380;-78
2021/08/07 10:14:51;;;;;;;;;;;25.50;99.90;;;24.96;43.24;94752.78;10277669;28;2237;-80
2021/08/07 10:19:54;;;;;;;;;;;25.50;99.90;;;25.15;43.91;94755.19;10300196;28;2333;-79
2021/08/07 10:24:57;;;;;;;;;;;25.80;99.90;;;25.34;44.42;94748.50;10288313;28;2429;-77
2021/08/07 10:29:59;;;;;;;;;;;25.90;99.90;;;24.73;45.01;94748.38;10293751;28;2386;-78
2021/08/07 10:35:02;;;;;;;;;;;25.80;99.90;;;24.98;44.86;94736.66;10295135;28;2374;-78
2021/08/07 10:40:05;;;;;;;;;;;25.50;99.90;;;25.65;43.38;94751.63;10285839;28;2392;-79
2021/08/07 10:45:08;;;;;;;;;;;26.10;99.90;;;26.25;41.89;94726.72;10283627;28;2321;-80
2021/08/07 10:50:11;;;;;;;;;;;26.70;99.90;;;26.42;43.25;94733.38;10293742;28;2780;-79
2021/08/07 10:55:14;;;;;;;;;;;26.90;99.90;;;26.28;42.42;94734.19;10280680;28;2329;-79
2021/08/07 11:00:17;;;;;;;;;;;27.00;99.90;;;26.47;41.58;94729.44;10324711;28;2727;-79
2021/08/07 11:05:19;;;;;;;;;;;27.30;99.90;;;25.97;42.05;94735.88;10294797;28;2269;-77
2021/08/07 11:10:23;;;;;;;;;;;26.90;99.90;;;26.28;42.52;94719.63;10292997;28;2424;-78
2021/08/07 11:15:26;;;;;;;;;;;27.30;99.90;;;26.78;39.98;94706.38;10320297;28;1982;-77
2021/08/07 11:20:28;;;;;;;;;;;28.00;99.90;;;26.15;42.00;94700.00;10327173;28;1928;-79
2021/08/07 11:25:31;;;;;;;;;;;27.50;99.90;;;26.22;42.90;94690.94;10311367;28;2258;-79
2021/08/07 11:30:35;;;;;;;;;;;27.10;99.90;;;26.17;42.76;94683.09;10317726;28;2341;-79
2021/08/07 11:35:38;;;;;;;;;;;27.00;99.90;;;25.34;43.62;94680.53;10313235;28;1590;-79
2021/08/07 11:40:41;;;;;;;;;;;26.80;99.90;;;25.23;43.49;94667.94;10302374;28;1962;-78
2021/08/07 11:45:44;;;;;;;;;;;26.40;99.90;;;25.63;43.70;94661.19;10308114;28;1390;-79
2021/08/07 11:50:46;;;;;;;;;;;26.30;99.90;;;25.65;42.99;94664.34;10313930;28;1685;-80
2021/08/07 11:55:49;;;;;;;;;;;26.50;99.90;;;26.01;43.34;94667.00;10303103;28;2126;-78
2021/08/07 12:00:52;;;;;;;;;;;26.60;99.90;;;26.27;43.51;94665.72;10311339;28;1948;-78
2021/08/07 12:05:55;;;;;;;;;;;26.90;99.90;;;26.16;44.11;94648.47;10309949;28;1665;-78
2021/08/07 12:10:57;;;;;;;;;;;26.90;99.90;;;25.27;44.20;94644.78;10293028;28;2380;-79
2021/08/07 12:16:01;;;;;;;;;;;26.30;99.90;;;25.81;42.96;94636.41;10273370;28;1910;-77
2021/08/07 12:21:05;;;;;;;;;;;26.60;99.90;;;25.12;44.62;94631.41;10281441;28;2365;-78
2021/08/07 12:26:07;;;;;;;;;;;26.30;99.90;;;25.54;44.82;94619.56;10292642;28;2314;-79
2021/08/07 12:31:10;;;;;;;;;;;26.30;99.90;;;25.42;44.37;94622.75;10283958;28;2300;-78
2021/08/07 12:36:13;;;;;;;;;;;26.30;99.90;;;25.73;42.81;94626.63;10291428;28;2324;-77
2021/08/07 12:41:16;;;;;;;;;;;26.60;99.90;;;25.39;44.63;94613.31;10288431;28;2005;-80
2021/08/07 12:46:19;;;;;;;;;;;26.50;99.90;;;25.60;42.88;94617.97;10294819;28;2392;-79
2021/08/07 12:51:22;;;;;;;;;;;26.50;99.90;;;25.83;41.54;94604.56;10291446;28;2201;-76
2021/08/07 12:56:24;;;;;;;;;;;26.60;99.90;;;25.56;42.23;94604.22;10317473;28;2329;-77
2021/08/07 13:01:27;;;;;;;;;;;26.70;99.90;;;25.81;44.07;94590.41;10294798;28;2286;-79
2021/08/07 13:06:30;;;;;;;;;;;26.70;99.90;;;25.22;44.80;94587.41;10302365;28;2314;-78
2021/08/07 13:11:33;;;;;;;;;;;26.40;99.90;;;25.49;44.98;94589.69;10308697;28;2286;-79
2021/08/07 13:16:36;;;;;;;;;;;26.40;99.90;;;26.27;45.08;94592.13;10301694;28;2274;-79
2021/08/07 13:21:40;;;;;;;;;;;26.80;99.90;;;25.68;45.00;94588.47;10289367;28;2360;-78
2021/08/07 13:26:42;;;;;;;;;;;26.80;99.90;;;25.19;44.25;94592.91;10284019;28;2402;-79
2021/08/07 13:31:45;;;;;;;;;;;26.40;99.90;;;25.50;43.57;94585.75;10311961;28;2270;-79
2021/08/07 13:36:48;;;;;;;;;;;26.30;99.90;;;25.91;43.14;94571.50;10305449;28;2350;-81
2021/08/07 13:41:51;;;;;;;;;;;26.50;99.90;;;25.86;41.37;94580.94;10298002;28;2287;-80
2021/08/07 13:46:54;;;;;;;;;;;26.70;99.90;;;25.82;41.62;94566.41;10297238;28;2400;-78
2021/08/07 13:51:56;;;;;;;;;;;26.70;99.90;;;26.03;42.48;94560.81;10305393;28;2420;-80
2021/08/07 13:57:01;;;;;;;;;;;26.80;99.90;;;25.97;42.28;94559.66;10331852;28;1352;-80
2021/08/07 14:02:04;;;;;;;;;;;26.90;99.90;;;25.81;41.84;94540.84;10314085;28;2416;-77
2021/08/07 14:07:07;;;;;;;;;;;27.00;99.90;;;25.59;42.57;94526.38;10318380;28;2404;-79
2021/08/07 14:12:09;;;;;;;;;;;26.60;99.90;;;25.77;42.67;94525.56;10317406;28;2299;-80
2021/08/07 14:17:12;;;;;;;;;;;26.60;99.90;;;25.68;41.48;94525.16;10322797;28;2180;-79
2021/08/07 14:22:15;;;;;;;;;;;26.50;99.40;;;26.16;40.97;94517.06;10338272;28;1987;-78
2021/08/07 14:27:17;;;;;;;;;;;26.80;99.60;;;26.20;41.98;94523.31;10317532;28;1625;-78
2021/08/07 14:32:20;;;;;;;;;;;27.00;99.90;;;26.32;42.08;94536.59;10326683;28;2334;-77
2021/08/07 14:37:23;;;;;;;;;;;27.10;99.90;;;25.91;42.35;94538.47;10314528;28;2251;-79
2021/08/07 14:42:26;;;;;;;;;;;27.00;99.90;;;25.73;42.75;94533.03;10311800;28;2329;-79
2021/08/07 14:47:28;;;;;;;;;;;26.60;99.90;;;25.20;43.25;94543.03;10308476;28;2485;-78
2021/08/07 14:52:31;;;;;;;;;;;26.20;99.90;;;24.41;46.80;94578.00;10305442;28;2622;-78
2021/08/07 14:57:34;;;;;;;;;;;25.80;99.90;;;23.46;49.05;94625.88;10285227;28;2488;-80
2021/08/07 15:02:36;;;;;;;;;;;24.80;99.90;;;22.34;50.54;94625.41;10275915;28;2366;-80
2021/08/07 15:07:39;;;;;;;;;;;23.70;99.90;;;21.90;48.55;94615.13;10278608;28;2397;-79
2021/08/07 15:12:42;;;;;;;;;;;23.00;99.90;;;21.31;48.71;94614.00;10291633;28;2514;-77
2021/08/07 15:17:45;;;;;;;;;;;22.50;99.90;;;20.98;48.44;94626.38;10298126;28;2583;-79
2021/08/07 15:22:48;;;;;;;;;;;22.10;99.90;;;20.51;50.94;94695.06;10289010;28;2781;-79
2021/08/07 15:27:53;;;;;;;;;;;21.60;99.90;;;19.35;63.23;94744.84;10285410;28;2310;-80
2021/08/07 15:32:56;;;;;;;;;;;21.00;99.90;;;16.14;90.28;94775.28;10293938;28;2413;-79
2021/08/07 15:37:58;;;;;;;;;;;18.40;99.90;;;15.43;100.00;94778.81;10310514;28;2711;-79
2021/08/07 15:43:01;;;;;;;;;;;16.80;99.90;;;15.25;100.00;94791.66;10314585;28;2405;-80
2021/08/07 15:48:04;;;;;;;;;;;16.30;99.90;;;15.13;100.00;94832.97;10293110;28;2559;-80
2021/08/07 15:53:09;;;;;;;;;;;16.10;99.90;;;15.12;100.00;94871.97;10291157;28;2404;-80
2021/08/07 15:58:13;;;;;;;;;;;16.00;99.90;;;15.01;100.00;94899.72;10278963;28;2476;-81
2021/08/07 16:03:16;;;;;;;;;;;15.90;99.90;;;14.86;100.00;94928.09;10267442;28;2377;-81
2021/08/07 16:08:19;;;;;;;;;;;15.80;99.90;;;14.79;100.00;94916.97;10266586;28;2382;-81
2021/08/07 16:13:23;;;;;;;;;;;15.60;99.90;;;14.71;100.00;94942.13;10272797;28;2594;-78
2021/08/07 16:18:26;;;;;;;;;;;15.60;99.90;;;14.57;100.00;94980.94;10268584;28;2321;-79
2021/08/07 16:23:29;;;;;;;;;;;15.50;99.90;;;14.46;100.00;94992.34;10268695;28;2613;-80
2021/08/07 16:28:32;;;;;;;;;;;15.40;99.90;;;14.36;100.00;94984.53;10269217;28;2354;-81
2021/08/07 16:33:35;;;;;;;;;;;15.20;99.90;;;14.23;100.00;94940.31;10272703;28;2508;-78
2021/08/07 16:38:37;;;;;;;;;;;15.10;99.90;;;14.26;100.00;94937.00;10277885;28;2483;-79
2021/08/07 16:43:40;;;;;;;;;;;15.00;99.90;;;14.35;100.00;94981.03;10277064;28;2837;-81
2021/08/07 16:48:43;;;;;;;;;;;15.10;99.90;;;14.44;100.00;94981.03;10284098;28;2374;-78
2021/08/07 16:53:46;;;;;;;;;;;15.20;99.90;;;14.38;100.00;94995.81;10298708;28;2368;-79
2021/08/07 16:58:48;;;;;;;;;;;15.20;99.90;;;14.44;100.00;95006.19;10276046;28;2702;-79
2021/08/07 17:03:51;;;;;;;;;;;15.20;99.90;;;14.45;100.00;95007.78;10289756;28;2332;-79
2021/08/07 17:08:54;;;;;;;;;;;15.30;99.90;;;14.55;100.00;95010.19;10304955;28;2288;-78
2021/08/07 17:13:57;;;;;;;;;;;15.40;99.90;;;14.52;100.00;95015.47;10288646;28;2738;-81
2021/08/07 17:18:59;;;;;;;;;;;15.40;99.90;;;14.51;100.00;95022.78;10284275;28;2229;-79
2021/08/07 17:24:04;;;;;;;;;;;15.40;99.90;;;14.59;100.00;95054.44;10290504;28;2352;-80
2021/08/07 17:29:07;;;;;;;;;;;15.40;99.90;;;14.52;100.00;95016.25;10304107;28;2146;-79
2021/08/07 17:34:09;;;;;;;;;;;15.50;99.90;;;14.45;100.00;95029.41;10299650;28;2313;-79
2021/08/07 17:39:12;;;;;;;;;;;15.40;99.90;;;14.45;100.00;95037.53;10280346;28;2183;-81
2021/08/07 17:44:15;;;;;;;;;;;15.40;99.90;;;14.47;100.00;95040.75;10288052;28;2247;-80
2021/08/07 17:49:17;;;;;;;;;;;15.40;99.90;;;14.46;100.00;95031.03;10282328;28;2404;-80
2021/08/07 17:54:20;;;;;;;;;;;15.40;99.90;;;14.45;100.00;95025.91;10280645;28;2307;-81
2021/08/07 17:59:23;;;;;;;;;;;15.40;99.90;;;14.45;100.00;95053.75;10277949;28;2275;-78
2021/08/07 18:04:26;;;;;;;;;;;15.40;99.90;;;14.46;100.00;95055.38;10277411;28;2377;-79
2021/08/07 18:09:29;;;;;;;;;;;15.40;99.90;;;14.39;100.00;95041.50;10284118;28;2196;-79
2021/08/07 18:14:32;;;;;;;;;;;15.40;99.90;;;14.48;100.00;95052.34;10276636;28;2379;-81
2021/08/07 18:19:34;;;;;;;;;;;15.40;99.90;;;14.54;100.00;95040.28;10286503;28;2761;-80
2021/08/07 18:24:37;;;;;;;;;;;15.50;99.90;;;14.57;100.00;95035.03;10281792;28;2345;-80
2021/08/07 18:29:40;;;;;;;;;;;15.50;99.90;;;14.51;100.00;95041.72;10312150;28;2386;-79
2021/08/07 18:34:43;;;;;;;;;;;15.50;99.90;;;14.51;100.00;95067.97;10294294;28;2080;-78
2021/08/07 18:39:45;;;;;;;;;;;15.50;99.90;;;14.51;100.00;95084.97;10295485;28;2341;-81
2021/08/07 18:44:48;;;;;;;;;;;15.50;99.90;;;14.53;100.00;95098.97;10288672;28;2630;-78
2021/08/07 18:49:51;;;;;;;;;;;15.50;99.90;;;14.48;100.00;95106.44;10289244;28;2576;-79
2021/08/07 18:54:54;;;;;;;;;;;15.50;99.90;;;14.44;100.00;95111.66;10285918;28;2210;-79
2021/08/07 18:59:56;;;;;;;;;;;15.40;99.90;;;14.43;100.00;95101.94;10281683;28;2361;-80
2021/08/07 19:05:04;;;;;;;;;;;15.40;99.90;;;14.38;100.00;95091.28;10278407;28;2578;-80
2021/08/07 19:10:07;;;;;;;;;;;15.30;99.90;;;14.35;100.00;95091.88;10284302;28;2358;-81
2021/08/07 19:15:10;;;;;;;;;;;15.30;99.90;;;14.33;100.00;95111.13;10288893;28;2339;-80
2021/08/07 19:20:13;;;;;;;;;;;15.30;99.90;;;14.31;100.00;95097.16;10280249;28;2286;-80
2021/08/07 19:25:16;;;;;;;;;;;15.20;99.90;;;14.30;100.00;95068.50;10287096;28;2285;-82
2021/08/07 19:30:18;;;;;;;;;;;15.20;99.90;;;14.29;100.00;95050.69;10289027;28;2532;-80
2021/08/07 19:35:21;;;;;;;;;;;15.20;99.90;;;14.27;100.00;95022.38;10285112;28;2233;-81
2021/08/07 19:40:24;;;;;;;;;;;15.20;99.90;;;14.27;100.00;95009.66;10285106;28;2520;-79
2021/08/07 19:45:27;;;;;;;;;;;15.20;99.90;;;14.23;100.00;95002.50;10304248;28;2328;-79
2021/08/07 19:50:30;;;;;;;;;;;15.20;99.90;;;14.22;100.00;95011.72;10295025;28;2122;-79
2021/08/07 19:55:32;;;;;;;;;;;15.10;99.90;;;14.22;100.00;95009.00;10301714;28;2305;-79
2021/08/07 20:00:35;;;;;;;;;;;15.10;99.90;;;14.21;100.00;94996.63;10325781;28;2305;-79
2021/08/07 20:05:38;;;;;;;;;;;15.10;99.90;;;14.21;100.00;94992.00;10307750;28;2474;-80
2021/08/07 20:10:41;;;;;;;;;;;15.10;99.90;;;14.21;100.00;94996.63;10292354;28;2296;-79
2021/08/07 20:15:47;;;;;;;;;;;15.10;99.90;;;14.24;100.00;95023.00;10302315;28;2308;-79
2021/08/07 20:20:50;;;;;;;;;;;15.10;99.90;;;14.22;100.00;95022.53;10311812;28;2371;-81
2021/08/07 20:25:53;;;;;;;;;;;15.20;99.90;;;14.19;100.00;95033.97;10291830;28;2279;-79
2021/08/07 20:30:55;;;;;;;;;;;15.10;99.90;;;14.16;100.00;95048.09;10279828;28;2472;-80
2021/08/07 20:35:58;;;;;;;;;;;15.10;99.90;;;14.14;100.00;95047.63;10283804;28;2219;-81
2021/08/07 20:41:01;;;;;;;;;;;15.00;99.90;;;14.12;100.00;95058.72;10286192;28;2238;-79
2021/08/07 20:46:04;;;;;;;;;;;15.00;99.90;;;14.11;100.00;95075.28;10291086;28;2322;-80
2021/08/07 20:51:07;;;;;;;;;;;15.00;99.90;;;14.12;100.00;95066.03;10284847;28;2309;-80
2021/08/07 20:56:10;;;;;;;;;;;15.00;99.90;;;14.12;100.00;95049.84;10287489;28;2404;-80
2021/08/07 21:01:13;;;;;;;;;;;15.00;99.90;;;14.07;100.00;95065.09;10282873;28;2400;-79
2021/08/07 21:06:16;;;;;;;;;;;15.00;99.90;;;14.05;100.00;95050.28;10285758;28;2442;-79
2021/08/07 21:11:18;;;;;;;;;;;15.00;99.90;;;14.04;100.00;95060.31;10298328;28;2302;-79
2021/08/07 21:16:21;;;;;;;;;;;15.00;99.90;;;14.03;100.00;95052.50;10286108;28;2251;-81
2021/08/07 21:21:24;;;;;;;;;;;15.00;99.90;;;14.11;100.00;95064.47;10296670;28;2396;-79
2021/08/07 21:26:27;;;;;;;;;;;15.00;99.90;;;14.04;100.00;95073.81;10292625;28;2475;-81
2021/08/07 21:31:31;;;;;;;;;;;15.00;99.90;;;14.09;100.00;95080.19;10307009;28;2401;-79
2021/08/07 21:36:34;;;;;;;;;;;15.00;99.90;;;14.16;100.00;95086.75;10286491;28;2277;-79
2021/08/07 21:41:37;;;;;;;;;;;15.00;99.90;;;14.19;100.00;95101.56;10292451;28;2282;-78
2021/08/07 21:46:40;;;;;;;;;;;15.10;99.90;;;14.20;100.00;95122.06;10272480;28;2372;-79
2021/08/07 21:51:42;;;;;;;;;;;15.10;99.90;;;14.21;100.00;95129.06;10308855;28;2313;-79
2021/08/07 21:56:45;;;;;;;;;;;15.10;99.90;;;14.19;100.00;95131.28;10300166;28;2385;-79
2021/08/07 22:01:48;;;;;;;;;;;15.10;99.90;;;14.22;100.00;95142.25;10279433;28;2321;-77
2021/08/07 22:06:51;;;;;;;;;;;15.10;99.90;;;14.21;100.00;95139.88;10295270;28;2316;-79
2021/08/07 22:11:53;;;;;;;;;;;15.20;99.90;;;14.22;100.00;95144.16;10291664;28;2407;-81
2021/08/07 22:16:57;;;;;;;;;;;15.20;99.90;;;14.24;100.00;95147.34;10281278;28;2265;-81
2021/08/07 22:22:01;;;;;;;;;;;15.20;99.90;;;14.26;100.00;95159.47;10274874;28;2394;-79
2021/08/07 22:27:04;;;;;;;;;;;15.20;99.90;;;14.31;100.00;95169.31;10292195;28;2337;-80
2021/08/07 22:32:07;;;;;;;;;;;15.20;99.90;;;14.32;100.00;95181.75;10278496;28;2334;-79
2021/08/07 22:37:09;;;;;;;;;;;15.30;99.90;;;14.36;100.00;95185.41;10283500;28;2366;-80
2021/08/07 22:42:12;;;;;;;;;;;15.30;99.90;;;14.41;100.00;95177.16;10299372;28;2408;-80
2021/08/07 22:47:17;;;;;;;;;;;15.30;99.90;;;14.43;100.00;95180.34;10292989;28;2311;-80
2021/08/07 22:52:20;;;;;;;;;;;15.30;99.90;;;14.41;100.00;95193.38;10279859;28;2402;-79
2021/08/07 22:57:23;;;;;;;;;;;15.40;99.90;;;14.41;100.00;95193.38;10282672;28;2322;-79
2021/08/07 23:02:25;;;;;;;;;;;15.40;99.90;;;14.41;100.00;95209.59;10327842;28;2283;-78
2021/08/07 23:07:28;;;;;;;;;;;15.40;99.90;;;14.45;100.00;95220.63;10294561;28;2439;-80